createdAt,value
2018-03-15T00:02:16.972Z,79.50
2018-03-15T00:04:44.423Z,79.60
2018-03-15T00:07:11.845Z,79.60
2018-03-15T00:09:39.267Z,79.70
2018-03-15T00:12:06.689Z,79.70
2018-03-15T00:14:34.116Z,79.50
2018-03-15T00:17:01.629Z,80.10
2018-03-15T00:19:29.812Z,79.30
2018-03-15T00:21:57.236Z,79.30
2018-03-15T00:24:25.426Z,79.40
2018-03-15T00:26:52.948Z,79.40
2018-03-15T00:29:20.376Z,79.60
2018-03-15T00:31:48.563Z,79.20
2018-03-15T00:34:16.069Z,79.10
2018-03-15T00:36:43.548Z,79.20
2018-03-15T00:39:10.976Z,79.50
2018-03-15T00:41:39.199Z,80.20
2018-03-15T00:44:06.627Z,79.50
2018-03-15T00:46:34.811Z,79.80
2018-03-15T00:49:02.325Z,79.80
2018-03-15T00:51:29.740Z,79.90
2018-03-15T00:53:57.167Z,79.90
2018-03-15T00:56:24.628Z,80.20
2018-03-15T00:58:52.048Z,80.40
2018-03-15T01:01:19.483Z,81.10
2018-03-15T01:03:46.940Z,80.40
2018-03-15T01:06:14.372Z,80.40
2018-03-15T01:08:41.788Z,80.50
2018-03-15T01:11:09.247Z,80.60
2018-03-15T01:13:36.663Z,80.50
2018-03-15T01:16:04.096Z,80.70
2018-03-15T01:18:32.572Z,80.80
2018-03-15T01:21:00.057Z,80.90
2018-03-15T01:23:27.480Z,81.10
2018-03-15T01:25:55.708Z,81.40
2018-03-15T01:28:24.032Z,81.00
2018-03-15T01:30:51.463Z,80.90
2018-03-15T01:33:19.073Z,80.70
2018-03-15T01:35:46.508Z,80.60
2018-03-15T01:38:13.928Z,80.50
2018-03-15T01:40:41.452Z,80.50
2018-03-15T01:43:08.870Z,80.60
2018-03-15T01:45:36.295Z,80.70
2018-03-15T01:48:03.755Z,80.40
2018-03-15T01:50:31.185Z,80.30
2018-03-15T01:52:59.372Z,80.40
2018-03-15T01:55:27.567Z,81.00
2018-03-15T01:57:55.756Z,80.40
2018-03-15T02:00:23.970Z,80.50
2018-03-15T02:02:51.384Z,80.50
2018-03-15T02:05:18.836Z,80.70
2018-03-15T02:07:46.276Z,80.80
2018-03-15T02:10:13.704Z,80.70
2018-03-15T02:12:41.227Z,80.90
2018-03-15T02:15:08.643Z,81.50
2018-03-15T02:17:36.160Z,80.70
2018-03-15T02:20:03.593Z,80.60
2018-03-15T02:22:31.776Z,81.00
2018-03-15T02:25:00.004Z,80.90
2018-03-15T02:27:27.467Z,80.80
2018-03-15T02:29:54.940Z,80.60
2018-03-15T02:32:22.365Z,80.40
2018-03-15T02:34:49.880Z,80.50
2018-03-15T02:37:17.296Z,80.30
2018-03-15T02:39:44.731Z,80.20
2018-03-15T02:42:12.153Z,80.20
2018-03-15T02:44:40.372Z,80.00
2018-03-15T02:47:07.795Z,80.00
2018-03-15T02:49:36.066Z,79.70
2018-03-15T02:52:03.473Z,79.70
2018-03-15T02:54:31.669Z,79.70
2018-03-15T02:56:59.878Z,79.50
2018-03-15T02:59:27.340Z,79.50
2018-03-15T03:01:54.769Z,79.40
2018-03-15T03:04:22.290Z,79.30
2018-03-15T03:06:49.707Z,79.30
2018-03-15T03:09:17.178Z,79.30
2018-03-15T03:11:44.567Z,80.10
2018-03-15T03:14:12.772Z,79.50
2018-03-15T03:16:40.204Z,79.60
2018-03-15T03:19:07.632Z,79.70
2018-03-15T03:21:35.056Z,80.60
2018-03-15T03:24:03.240Z,79.90
2018-03-15T03:26:31.456Z,80.00
2018-03-15T03:28:58.880Z,79.90
2018-03-15T03:31:26.401Z,80.10
2018-03-15T03:33:53.867Z,80.20
2018-03-15T03:36:21.331Z,80.40
2018-03-15T03:38:49.665Z,80.50
2018-03-15T03:41:17.200Z,80.50
2018-03-15T03:43:44.629Z,80.70
2018-03-15T03:46:12.061Z,80.80
2018-03-15T03:48:39.480Z,81.10
2018-03-15T03:51:07.692Z,80.90
2018-03-15T03:53:35.112Z,80.80
2018-03-15T03:56:02.636Z,80.90
2018-03-15T03:58:31.019Z,81.10
2018-03-15T04:00:58.448Z,80.80
2018-03-15T04:03:25.876Z,80.80
2018-03-15T04:05:53.333Z,80.80
2018-03-15T04:08:20.797Z,81.10
2018-03-15T04:10:48.271Z,81.10
2018-03-15T04:13:15.738Z,81.10
2018-03-15T04:15:43.955Z,81.10
2018-03-15T04:18:11.392Z,80.90
2018-03-15T04:20:38.820Z,80.90
2018-03-15T04:23:06.380Z,81.00
2018-03-15T04:25:33.904Z,81.10
2018-03-15T04:28:01.380Z,81.20
2018-03-15T04:30:28.844Z,81.00
2018-03-15T04:32:56.268Z,81.10
2018-03-15T04:35:23.788Z,81.20
2018-03-15T04:37:51.208Z,81.30
2018-03-15T04:40:18.725Z,81.40
2018-03-15T04:42:46.192Z,81.50
2018-03-15T04:45:13.665Z,81.50
2018-03-15T04:47:41.132Z,81.40
2018-03-15T04:50:08.516Z,81.50
2018-03-15T04:52:35.936Z,81.60
2018-03-15T04:55:03.631Z,81.70
2018-03-15T04:57:31.832Z,81.60
2018-03-15T04:59:59.295Z,81.60
2018-03-15T05:02:27.472Z,81.80
2018-03-15T05:04:55.769Z,81.90
2018-03-15T05:07:23.184Z,81.90
2018-03-15T05:09:50.628Z,81.80
2018-03-15T05:12:18.089Z,81.80
2018-03-15T05:14:45.507Z,81.60
2018-03-15T05:17:13.028Z,81.60
2018-03-15T05:19:40.456Z,81.80
2018-03-15T05:22:07.977Z,81.90
2018-03-15T05:24:35.383Z,81.80
2018-03-15T05:27:02.907Z,82.00
2018-03-15T05:29:31.067Z,82.30
2018-03-15T05:31:59.284Z,82.30
2018-03-15T05:34:26.709Z,82.20
2018-03-15T05:36:54.224Z,82.20
2018-03-15T05:39:21.640Z,82.10
2018-03-15T05:41:49.072Z,82.30
2018-03-15T05:44:16.487Z,82.30
2018-03-15T05:46:43.928Z,82.30
2018-03-15T05:49:11.351Z,82.30
2018-03-15T05:51:39.556Z,82.30
2018-03-15T05:54:07.023Z,82.30
2018-03-15T05:56:34.504Z,82.20
2018-03-15T05:59:01.916Z,82.00
2018-03-15T06:01:29.428Z,82.00
2018-03-15T06:03:56.896Z,81.90
2018-03-15T06:06:24.332Z,81.90
2018-03-15T06:08:51.844Z,81.80
2018-03-15T06:11:19.267Z,81.60
2018-03-15T06:13:46.688Z,81.60
2018-03-15T06:16:14.115Z,81.40
2018-03-15T06:18:43.296Z,81.10
2018-03-15T06:21:10.833Z,81.10
2018-03-15T06:23:38.299Z,80.80
2018-03-15T06:26:05.724Z,80.80
2018-03-15T06:28:33.240Z,80.70
2018-03-15T06:31:00.667Z,80.40
2018-03-15T06:33:28.090Z,80.30
2018-03-15T06:35:55.511Z,80.60
2018-03-15T06:38:24.760Z,79.80
2018-03-15T06:40:52.201Z,79.70
2018-03-15T06:43:20.424Z,79.50
2018-03-15T06:45:47.888Z,79.50
2018-03-15T06:48:15.312Z,79.40
2018-03-15T06:50:42.736Z,79.20
2018-03-15T06:53:10.160Z,78.90
2018-03-15T06:55:38.388Z,78.20
2018-03-15T06:58:05.858Z,78.20
2018-03-15T07:00:33.289Z,77.90
2018-03-15T07:03:01.605Z,77.80
2018-03-15T07:05:30.000Z,77.80
2018-03-15T07:07:57.424Z,77.80
2018-03-15T07:10:24.896Z,77.90
2018-03-15T07:12:52.307Z,77.70
2018-03-15T07:15:19.722Z,77.20
2018-03-15T07:17:47.249Z,77.00
2018-03-15T07:20:14.664Z,76.90
2018-03-15T07:22:42.222Z,76.70
2018-03-15T07:25:09.660Z,76.70
2018-03-15T07:27:37.951Z,76.50
2018-03-15T07:30:05.376Z,76.50
2018-03-15T07:32:32.884Z,76.10
2018-03-15T07:35:00.304Z,75.90
2018-03-15T07:37:27.824Z,76.00
2018-03-15T07:39:55.244Z,75.60
2018-03-15T07:42:22.764Z,75.20
2018-03-15T07:44:50.196Z,74.80
2018-03-15T07:47:17.848Z,74.40
2018-03-15T07:49:45.263Z,74.10
2018-03-15T07:52:12.748Z,74.20
2018-03-15T07:54:40.112Z,74.20
2018-03-15T07:57:07.587Z,74.10
2018-03-15T07:59:35.007Z,73.80
2018-03-15T08:02:02.458Z,72.90
2018-03-15T08:04:29.888Z,73.40
2018-03-15T08:06:57.365Z,73.50
2018-03-15T08:09:24.840Z,73.60
2018-03-15T08:11:52.300Z,72.90
2018-03-15T08:14:19.776Z,72.70
2018-03-15T08:16:47.212Z,72.50
2018-03-15T08:19:15.396Z,71.70
2018-03-15T08:21:43.592Z,71.30
2018-03-15T08:24:11.805Z,70.50
2018-03-15T08:26:39.236Z,70.50
2018-03-15T08:29:07.461Z,70.40
2018-03-15T08:31:34.888Z,70.20
2018-03-15T08:34:03.075Z,70.20
2018-03-15T08:36:31.272Z,69.40
2018-03-15T08:38:59.464Z,69.10
2018-03-15T08:41:27.659Z,69.20
2018-03-15T08:43:55.140Z,69.20
2018-03-15T08:46:22.568Z,69.00
2018-03-15T08:48:49.984Z,69.10
2018-03-15T08:51:17.416Z,69.30
2018-03-15T08:53:45.655Z,68.20
2018-03-15T08:56:13.069Z,68.20
2018-03-15T08:58:40.492Z,68.00
2018-03-15T09:01:07.924Z,68.30
2018-03-15T09:03:36.231Z,67.00
2018-03-15T09:06:03.659Z,66.90
2018-03-15T09:08:31.188Z,66.60
2018-03-15T09:10:58.690Z,66.70
2018-03-15T09:13:26.075Z,66.60
2018-03-15T09:15:53.599Z,66.40
2018-03-15T09:18:21.067Z,66.70
2018-03-15T09:20:48.484Z,66.90
2018-03-15T09:23:16.008Z,65.60
2018-03-15T09:25:43.476Z,64.70
2018-03-15T09:28:10.900Z,63.90
2018-03-15T09:30:38.416Z,63.70
2018-03-15T09:33:05.852Z,64.60
2018-03-15T09:35:34.044Z,63.90
2018-03-15T09:38:02.240Z,63.40
2018-03-15T09:40:29.719Z,63.30
2018-03-15T09:42:57.104Z,63.20
2018-03-15T09:45:24.563Z,62.90
2018-03-15T09:47:52.031Z,62.40
2018-03-15T09:50:19.457Z,62.60
2018-03-15T09:52:46.976Z,62.70
2018-03-15T09:55:14.450Z,62.70
2018-03-15T09:57:41.876Z,62.40
2018-03-15T10:00:09.303Z,62.50
2018-03-15T10:02:36.752Z,61.50
2018-03-15T10:05:04.167Z,61.10
2018-03-15T10:07:31.684Z,61.00
2018-03-15T10:09:59.156Z,61.50
2018-03-15T10:12:26.634Z,60.90
2018-03-15T10:14:54.099Z,60.00
2018-03-15T10:17:21.528Z,59.80
2018-03-15T10:19:48.951Z,60.20
2018-03-15T10:22:16.406Z,59.30
2018-03-15T10:24:44.600Z,58.50
2018-03-15T10:27:17.655Z,58.50
2018-03-15T10:29:45.079Z,57.50
2018-03-15T10:32:12.636Z,58.00
2018-03-15T10:34:40.107Z,57.40
2018-03-15T10:37:07.544Z,56.80
2018-03-15T10:39:35.745Z,56.40
2018-03-15T10:42:03.943Z,56.50
2018-03-15T10:44:31.359Z,56.50
2018-03-15T10:46:59.604Z,56.20
2018-03-15T10:49:27.059Z,56.10
2018-03-15T10:51:54.452Z,55.90
2018-03-15T10:54:21.880Z,55.80
2018-03-15T10:56:49.306Z,55.40
2018-03-15T10:59:16.724Z,55.90
2018-03-15T11:05:00.468Z,55.80
2018-03-15T11:07:29.724Z,55.10
2018-03-15T11:09:57.920Z,54.80
2018-03-15T11:12:26.116Z,54.90
2018-03-15T11:14:53.539Z,54.80
2018-03-15T11:17:21.060Z,55.10
2018-03-15T11:19:48.532Z,54.80
2018-03-15T11:22:15.970Z,54.60
2018-03-15T11:24:44.198Z,55.50
2018-03-15T11:27:11.630Z,54.90
2018-03-15T11:29:39.808Z,55.80
2018-03-15T11:32:07.320Z,55.10
2018-03-15T11:34:34.780Z,54.50
2018-03-15T11:37:02.216Z,53.40
2018-03-15T11:39:29.724Z,52.40
2018-03-15T11:41:57.156Z,52.80
2018-03-15T11:44:25.384Z,53.10
2018-03-15T11:46:52.912Z,52.40
2018-03-15T11:49:20.336Z,52.70
2018-03-15T11:51:47.788Z,53.10
2018-03-15T11:54:15.212Z,53.00
2018-03-15T11:56:42.635Z,53.00
2018-03-15T11:59:10.126Z,53.10
2018-03-15T12:01:37.574Z,52.60
2018-03-15T12:04:05.004Z,53.30
2018-03-15T12:06:33.238Z,54.20
2018-03-15T12:09:00.699Z,54.20
2018-03-15T12:11:28.119Z,53.70
2018-03-15T12:13:55.633Z,53.50
2018-03-15T12:16:23.051Z,52.90
2018-03-15T12:18:50.487Z,53.30
2018-03-15T12:21:17.940Z,52.70
2018-03-15T12:23:45.370Z,53.40
2018-03-15T12:26:12.933Z,53.80
2018-03-15T12:28:40.315Z,54.40
2018-03-15T12:31:07.736Z,54.20
2018-03-15T12:33:35.164Z,53.80
2018-03-15T12:36:03.380Z,54.80
2018-03-15T12:38:30.803Z,54.80
2018-03-15T12:40:58.316Z,55.10
2018-03-15T12:43:26.496Z,54.50
2018-03-15T12:45:53.912Z,54.50
2018-03-15T12:48:21.336Z,54.60
2018-03-15T12:50:48.760Z,53.80
2018-03-15T12:53:16.188Z,53.70
2018-03-15T12:55:43.608Z,53.90
2018-03-15T12:58:11.032Z,54.00
2018-03-15T13:00:38.451Z,53.70
2018-03-15T13:03:06.677Z,53.50
2018-03-15T13:05:34.143Z,53.40
2018-03-15T13:08:01.610Z,53.80
2018-03-15T13:10:29.772Z,54.40
2018-03-15T13:12:57.963Z,54.10
2018-03-15T13:15:26.147Z,53.30
2018-03-15T13:17:54.360Z,53.00
2018-03-15T13:20:21.779Z,53.00
2018-03-15T13:22:49.296Z,53.40
2018-03-15T13:25:16.772Z,53.10
2018-03-15T13:27:44.195Z,52.90
2018-03-15T13:30:12.442Z,52.40
2018-03-15T13:32:41.316Z,52.90
2018-03-15T13:35:08.739Z,52.90
2018-03-15T13:37:36.181Z,52.80
2018-03-15T13:40:03.612Z,53.00
2018-03-15T13:42:31.822Z,53.40
2018-03-15T13:44:59.291Z,53.40
2018-03-15T13:47:26.764Z,53.40
2018-03-15T13:49:54.186Z,53.60
2018-03-15T13:52:21.607Z,53.60
2018-03-15T13:54:49.032Z,53.80
2018-03-15T13:57:16.536Z,53.20
2018-03-15T13:59:43.952Z,53.40
2018-03-15T14:02:11.476Z,53.50
2018-03-15T14:04:38.900Z,54.10
2018-03-15T14:07:06.337Z,54.50
2018-03-15T14:09:33.784Z,53.40
2018-03-15T14:12:01.256Z,53.10
2018-03-15T14:14:28.731Z,53.00
2018-03-15T14:16:56.104Z,53.40
2018-03-15T14:19:23.537Z,53.20
2018-03-15T14:21:51.720Z,53.90
2018-03-15T14:24:19.911Z,53.50
2018-03-15T14:26:48.095Z,53.10
2018-03-15T14:29:16.312Z,53.10
2018-03-15T14:31:44.507Z,53.80
2018-03-15T14:34:11.924Z,53.70
2018-03-15T14:36:39.352Z,54.10
2018-03-15T14:39:06.828Z,53.90
2018-03-15T14:41:34.282Z,53.60
2018-03-15T14:44:01.760Z,53.50
2018-03-15T14:46:29.236Z,53.90
2018-03-15T14:48:56.680Z,54.10
2018-03-15T14:51:24.096Z,53.80
2018-03-15T14:53:52.354Z,53.30
2018-03-15T14:56:19.760Z,53.30
2018-03-15T14:58:47.284Z,53.60
2018-03-15T15:01:14.749Z,54.30
2018-03-15T15:03:42.231Z,54.30
2018-03-15T15:06:09.648Z,53.60
2018-03-15T15:08:37.080Z,53.80
2018-03-15T15:11:04.524Z,54.00
2018-03-15T15:13:31.951Z,54.20
2018-03-15T15:15:59.472Z,54.60
2018-03-15T15:18:26.899Z,53.70
2018-03-15T15:20:55.086Z,53.40
2018-03-15T15:23:23.304Z,53.90
2018-03-15T15:25:50.721Z,53.30
2018-03-15T15:28:18.164Z,54.00
2018-03-15T15:30:45.576Z,54.20
2018-03-15T15:33:13.772Z,54.10
2018-03-15T15:35:41.963Z,53.70
2018-03-15T15:38:10.178Z,53.60
2018-03-15T15:40:37.644Z,53.60
2018-03-15T15:43:05.072Z,53.80
2018-03-15T15:45:33.300Z,54.30
2018-03-15T15:48:00.768Z,54.10
2018-03-15T15:50:28.184Z,54.20
2018-03-15T15:52:55.643Z,54.20
2018-03-15T15:55:23.068Z,54.50
2018-03-15T15:57:50.556Z,55.20
2018-03-15T16:00:17.973Z,54.80
2018-03-15T16:02:45.396Z,55.30
2018-03-15T16:05:12.816Z,55.50
2018-03-15T16:07:40.324Z,55.60
2018-03-15T16:10:07.751Z,55.50
2018-03-15T16:12:35.186Z,55.30
2018-03-15T16:15:02.634Z,55.50
2018-03-15T16:17:30.799Z,55.70
2018-03-15T16:19:58.992Z,55.90
2018-03-15T16:22:26.417Z,55.90
2018-03-15T16:24:53.946Z,56.60
2018-03-15T16:27:21.416Z,56.30
2018-03-15T16:29:48.848Z,56.80
2018-03-15T16:32:17.789Z,56.80
2018-03-15T16:34:45.212Z,56.80
2018-03-15T16:37:12.729Z,56.70
2018-03-15T16:39:40.151Z,56.60
2018-03-15T16:42:07.670Z,57.00
2018-03-15T16:44:35.092Z,57.10
2018-03-15T16:47:02.516Z,57.20
2018-03-15T16:49:29.976Z,57.30
2018-03-15T16:51:57.391Z,57.30
2018-03-15T16:54:24.820Z,57.40
2018-03-15T16:56:52.235Z,57.60
2018-03-15T16:59:19.753Z,58.10
2018-03-15T17:01:47.228Z,58.70
2018-03-15T17:04:14.652Z,58.70
2018-03-15T17:06:42.836Z,58.00
2018-03-15T17:09:10.271Z,57.80
2018-03-15T17:11:37.727Z,57.40
2018-03-15T17:14:05.152Z,57.70
2018-03-15T17:16:33.335Z,57.30
2018-03-15T17:19:01.560Z,57.60
2018-03-15T17:21:29.723Z,56.90
2018-03-15T17:23:57.920Z,57.00
2018-03-15T17:26:25.336Z,57.00
2018-03-15T17:28:52.769Z,57.00
2018-03-15T17:31:20.192Z,57.00
2018-03-15T17:33:47.607Z,56.80
2018-03-15T17:36:15.084Z,57.00
2018-03-15T17:38:42.512Z,57.20
2018-03-15T17:41:09.937Z,57.30
2018-03-15T17:43:37.391Z,57.60
2018-03-15T17:46:04.868Z,57.80
2018-03-15T17:48:32.324Z,58.20
2018-03-15T17:50:59.748Z,58.50
2018-03-15T17:53:27.271Z,59.10
2018-03-15T17:55:54.732Z,58.70
2018-03-15T17:58:23.080Z,59.70
2018-03-15T18:00:50.700Z,60.80
2018-03-15T18:03:18.186Z,62.30
2018-03-15T18:05:45.603Z,62.80
2018-03-15T18:08:13.798Z,64.50
2018-03-15T18:10:42.012Z,64.00
2018-03-15T18:13:09.481Z,63.80
2018-03-15T18:15:36.964Z,64.60
2018-03-15T18:18:04.400Z,64.30
2018-03-15T18:20:32.608Z,66.10
2018-03-15T18:23:00.023Z,66.10
2018-03-15T18:25:27.481Z,67.40
2018-03-15T18:27:54.913Z,69.20
2018-03-15T18:30:22.345Z,70.30
2018-03-15T18:32:49.856Z,71.40
2018-03-15T18:35:17.301Z,71.30
2018-03-15T18:37:45.531Z,72.00
2018-03-15T18:40:12.968Z,71.90
2018-03-15T18:42:41.172Z,70.40
2018-03-15T18:45:08.640Z,70.40
2018-03-15T18:47:36.060Z,71.20
2018-03-15T18:50:03.504Z,71.60
2018-03-15T18:52:30.928Z,72.00
2018-03-15T18:54:59.130Z,72.80
2018-03-15T18:57:26.566Z,72.80
2018-03-15T18:59:54.744Z,74.50
2018-03-15T19:02:22.156Z,74.50
2018-03-15T19:04:49.589Z,74.40
2018-03-15T19:07:17.035Z,74.30
2018-03-15T19:09:44.423Z,74.40
2018-03-15T19:12:11.936Z,74.30
2018-03-15T19:14:39.360Z,73.90
2018-03-15T19:17:06.889Z,73.80
2018-03-15T19:19:34.452Z,73.80
2018-03-15T19:22:01.881Z,73.80
2018-03-15T19:24:29.300Z,74.70
2018-03-15T19:26:56.711Z,74.90
2018-03-15T19:29:24.135Z,74.90
2018-03-15T19:31:51.548Z,75.40
2018-03-15T19:34:18.968Z,75.40
2018-03-15T19:36:46.384Z,75.50
2018-03-15T19:39:13.904Z,75.40
2018-03-15T19:41:41.321Z,75.30
2018-03-15T19:44:08.840Z,74.80
2018-03-15T19:46:36.314Z,74.60
2018-03-15T19:49:03.735Z,74.30
2018-03-15T19:51:31.252Z,73.90
2018-03-15T19:53:58.826Z,73.70
2018-03-15T19:56:27.012Z,74.20
2018-03-15T19:58:55.195Z,73.70
2018-03-15T20:01:22.616Z,73.70
2018-03-15T20:03:50.136Z,73.60
2018-03-15T20:06:17.547Z,73.00
2018-03-15T20:08:44.967Z,73.40
2018-03-15T20:11:12.452Z,74.00
2018-03-15T20:13:39.919Z,74.00
2018-03-15T20:16:07.341Z,73.50
2018-03-15T20:18:34.852Z,74.20
2018-03-15T20:21:02.332Z,73.90
2018-03-15T20:23:35.548Z,74.50
2018-03-15T20:26:02.964Z,74.50
2018-03-15T20:28:37.004Z,75.00
2018-03-15T20:31:05.192Z,75.00
2018-03-15T20:33:39.240Z,75.00
2018-03-15T20:36:06.920Z,75.00
2018-03-15T20:38:34.332Z,75.40
2018-03-15T20:41:07.548Z,75.40
2018-03-15T20:43:36.703Z,75.20
2018-03-15T20:46:10.003Z,74.70
2018-03-15T20:48:43.992Z,75.70
2018-03-15T20:51:12.181Z,75.80
2018-03-15T20:53:40.364Z,75.90
2018-03-15T20:56:07.788Z,75.80
2018-03-15T20:58:35.208Z,76.10
2018-03-15T21:01:03.395Z,75.90
2018-03-15T21:03:31.580Z,75.90
2018-03-15T21:05:59.768Z,76.00
2018-03-15T21:08:27.980Z,75.90
2018-03-15T21:10:55.408Z,75.80
2018-03-15T21:13:22.921Z,75.60
2018-03-15T21:15:50.343Z,75.80
2018-03-15T21:18:17.863Z,75.90
2018-03-15T21:20:45.297Z,75.70
2018-03-15T21:23:12.809Z,75.80
2018-03-15T21:25:40.274Z,75.90
2018-03-15T21:28:08.456Z,76.10
2018-03-15T21:30:35.878Z,76.10
2018-03-15T21:33:03.301Z,76.40
2018-03-15T21:35:30.719Z,76.50
2018-03-15T21:37:58.140Z,76.50
2018-03-15T21:40:25.564Z,76.40
2018-03-15T21:42:53.176Z,76.10
2018-03-15T21:45:21.376Z,76.10
2018-03-15T21:47:48.813Z,76.10
2018-03-15T21:50:16.216Z,76.00
2018-03-15T21:52:43.636Z,76.00
2018-03-15T21:55:11.829Z,76.60
2018-03-15T21:57:40.013Z,76.30
2018-03-15T22:00:08.204Z,76.40
2018-03-15T22:02:36.438Z,76.40
2018-03-15T22:05:03.919Z,76.40
2018-03-15T22:07:31.337Z,76.40
2018-03-15T22:09:59.524Z,76.00
2018-03-15T22:12:27.744Z,76.10
2018-03-15T22:14:55.156Z,76.10
2018-03-15T22:17:22.589Z,76.70
2018-03-15T22:19:50.012Z,79.00
2018-03-15T22:22:18.196Z,77.00
2018-03-15T22:24:46.376Z,76.90
2018-03-15T22:27:14.600Z,78.00
2018-03-15T22:29:42.015Z,77.20
2018-03-15T22:32:09.537Z,76.80
2018-03-15T22:34:36.956Z,76.80
2018-03-15T22:37:04.389Z,77.10
2018-03-15T22:39:31.799Z,77.00
2018-03-15T22:41:59.987Z,77.40
2018-03-15T22:44:28.920Z,77.10
2018-03-15T22:46:57.123Z,77.70
2018-03-15T22:49:24.541Z,77.70
2018-03-15T22:51:52.727Z,79.70
2018-03-15T22:54:20.148Z,79.70
2018-03-15T22:56:47.573Z,79.90
2018-03-15T22:59:15.088Z,80.00
2018-03-15T23:01:42.561Z,80.80
2018-03-15T23:04:09.976Z,82.20
2018-03-15T23:06:37.404Z,83.10
2018-03-15T23:09:04.821Z,84.30
2018-03-15T23:11:32.328Z,85.00
2018-03-15T23:13:59.756Z,85.50
2018-03-15T23:16:27.952Z,86.70
2018-03-15T23:18:55.464Z,86.70
2018-03-15T23:21:22.887Z,87.40
2018-03-15T23:23:50.400Z,88.20
2018-03-15T23:26:17.828Z,88.80
2018-03-15T23:28:46.780Z,86.60
2018-03-15T23:31:14.240Z,86.60
2018-03-15T23:33:41.711Z,87.00
2018-03-15T23:36:09.189Z,87.20
2018-03-15T23:38:37.573Z,87.90
2018-03-15T23:41:05.008Z,89.00
2018-03-15T23:43:32.424Z,89.30
2018-03-15T23:45:59.852Z,89.60
2018-03-15T23:48:28.040Z,90.30
2018-03-15T23:50:56.260Z,90.50
2018-03-15T23:53:23.675Z,90.50
2018-03-15T23:55:51.107Z,90.80
2018-03-15T23:58:18.528Z,91.00
